createdAt,value
2022-09-17T00:00:02.110Z,1002.56
2022-09-17T00:01:08.231Z,1002.62
2022-09-17T00:02:01.155Z,1002.6
2022-09-17T00:03:01.115Z,1002.54
2022-09-17T00:04:01.082Z,1002.68
2022-09-17T00:05:01.071Z,1002.67
2022-09-17T00:06:11.087Z,1002.64
2022-09-17T00:07:01.701Z,1002.58
2022-09-17T00:08:01.475Z,1002.68
2022-09-17T00:09:01.044Z,1002.62
2022-09-17T00:10:01.108Z,1002.59
2022-09-17T00:11:14.251Z,1002.62
2022-09-17T00:12:01.534Z,1002.57
2022-09-17T00:13:01.849Z,1002.57
2022-09-17T00:14:01.241Z,1002.57
2022-09-17T00:15:01.311Z,1002.59
2022-09-17T00:16:16.898Z,1002.58
2022-09-17T00:17:02.019Z,1002.6
2022-09-17T00:18:01.056Z,1002.6
2022-09-17T00:19:01.054Z,1002.63
2022-09-17T00:20:01.071Z,1002.61
2022-09-17T00:21:01.069Z,1002.62
2022-09-17T00:22:01.259Z,1002.57
2022-09-17T00:23:01.058Z,1002.54
2022-09-17T00:24:01.063Z,1002.58
2022-09-17T00:25:01.114Z,1002.57
2022-09-17T00:26:01.123Z,1002.6
2022-09-17T00:27:01.230Z,1002.62
2022-09-17T00:28:01.253Z,1002.67
2022-09-17T00:29:01.931Z,1002.66
2022-09-17T00:30:01.142Z,1002.67
2022-09-17T00:31:01.121Z,1002.65
2022-09-17T00:32:01.039Z,1002.64
2022-09-17T00:33:01.053Z,1002.64
2022-09-17T00:34:01.070Z,1002.67
2022-09-17T00:35:01.667Z,1002.67
2022-09-17T00:36:01.456Z,1002.7
2022-09-17T00:37:01.104Z,1002.67
2022-09-17T00:38:01.117Z,1002.67
2022-09-17T00:39:01.100Z,1002.63
2022-09-17T00:40:01.207Z,1002.62
2022-09-17T00:41:01.100Z,1002.63
2022-09-17T00:42:01.107Z,1002.62
2022-09-17T00:43:01.135Z,1002.62
2022-09-17T00:44:00.985Z,1002.67
2022-09-17T00:45:01.238Z,1002.61
2022-09-17T00:46:01.547Z,1002.66
2022-09-17T00:47:02.110Z,1002.66
2022-09-17T00:48:01.148Z,1002.69
2022-09-17T00:49:00.744Z,1002.68
2022-09-17T00:50:00.457Z,1002.67
2022-09-17T00:51:00.057Z,1002.75
2022-09-17T00:52:00.746Z,1002.72
2022-09-17T00:53:01.105Z,1002.81
2022-09-17T00:54:01.095Z,1002.77
2022-09-17T00:55:01.099Z,1002.75
2022-09-17T00:56:01.111Z,1002.81
2022-09-17T00:57:01.488Z,1002.75
2022-09-17T00:58:02.249Z,1002.79
2022-09-17T00:59:01.125Z,1002.8
2022-09-17T01:00:01.151Z,1002.83
2022-09-17T01:01:01.173Z,1002.88
2022-09-17T01:02:01.221Z,1002.81
2022-09-17T01:03:01.046Z,1002.83
2022-09-17T01:04:01.063Z,1002.84
2022-09-17T01:05:01.507Z,1002.8
2022-09-17T01:06:02.129Z,1002.83
2022-09-17T01:07:01.670Z,1002.85
2022-09-17T01:08:01.765Z,1002.87
2022-09-17T01:09:01.872Z,1002.78
2022-09-17T01:10:01.792Z,1002.78
2022-09-17T01:11:01.829Z,1002.84
2022-09-17T01:12:01.316Z,1002.84
2022-09-17T01:13:01.336Z,1002.88
2022-09-17T01:14:01.511Z,1002.86
2022-09-17T01:15:04.257Z,1002.94
2022-09-17T01:16:01.627Z,1002.89
2022-09-17T01:17:01.335Z,1002.89
2022-09-17T01:18:01.059Z,1002.89
2022-09-17T01:19:01.785Z,1002.87
2022-09-17T01:20:01.055Z,1002.87
2022-09-17T01:21:01.054Z,1002.95
2022-09-17T01:22:01.257Z,1003
2022-09-17T01:23:05.292Z,1002.95
2022-09-17T01:24:01.646Z,1002.96
2022-09-17T01:25:01.094Z,1002.91
2022-09-17T01:26:01.093Z,1002.94
2022-09-17T01:27:01.110Z,1002.95
2022-09-17T01:28:01.099Z,1002.96
2022-09-17T01:29:01.146Z,1002.97
2022-09-17T01:30:01.859Z,1002.93
2022-09-17T01:31:01.217Z,1002.95
2022-09-17T01:32:01.128Z,1003.04
2022-09-17T01:33:02.346Z,1002.98
2022-09-17T01:34:02.067Z,1003.05
2022-09-17T01:35:01.068Z,1003.1
2022-09-17T01:36:01.092Z,1002.98
2022-09-17T01:37:01.057Z,1002.96
2022-09-17T01:38:01.065Z,1002.95
2022-09-17T01:39:01.068Z,1002.95
2022-09-17T01:40:01.121Z,1002.97
2022-09-17T01:41:01.047Z,1002.97
2022-09-17T01:42:01.428Z,1002.94
2022-09-17T01:43:01.107Z,1003.04
2022-09-17T01:44:01.583Z,1002.97
2022-09-17T01:45:01.127Z,1002.97
2022-09-17T01:46:01.148Z,1003.01
2022-09-17T01:47:04.811Z,1002.98
2022-09-17T01:48:01.864Z,1003.03
2022-09-17T01:49:01.675Z,1003.05
2022-09-17T01:50:01.427Z,1003.03
2022-09-17T01:51:02.683Z,1003.12
2022-09-17T01:52:08.234Z,1003.13
2022-09-17T01:53:01.742Z,1003.09
2022-09-17T01:54:01.152Z,1003.13
2022-09-17T01:55:01.889Z,1003.15
2022-09-17T01:56:01.847Z,1003.15
2022-09-17T01:57:11.854Z,1003.14
2022-09-17T01:58:01.097Z,1003.12
2022-09-17T01:59:01.138Z,1003.16
2022-09-17T02:00:01.110Z,1003.17
2022-09-17T02:01:01.204Z,1003.16
2022-09-17T02:02:15.361Z,1003.13
2022-09-17T02:03:01.135Z,1003.17
2022-09-17T02:04:01.154Z,1003.15
2022-09-17T02:05:01.519Z,1003.15
2022-09-17T02:06:02.098Z,1003.2
2022-09-17T02:07:01.051Z,1003.2
2022-09-17T02:08:01.056Z,1003.19
2022-09-17T02:09:00.667Z,1003.17
2022-09-17T02:10:00.249Z,1003.18
2022-09-17T02:10:59.853Z,1003.14
2022-09-17T02:12:01.488Z,1003.18
2022-09-17T02:13:02.110Z,1003.2
2022-09-17T02:14:02.303Z,1003.16
2022-09-17T02:15:01.119Z,1003.21
2022-09-17T02:16:01.318Z,1003.15
2022-09-17T02:17:02.026Z,1003.15
2022-09-17T02:18:01.132Z,1003.18
2022-09-17T02:19:01.136Z,1003.15
2022-09-17T02:20:01.039Z,1003.15
2022-09-17T02:21:01.043Z,1003.12
2022-09-17T02:22:01.049Z,1003.16
2022-09-17T02:23:01.464Z,1003.12
2022-09-17T02:24:01.065Z,1003.15
2022-09-17T02:25:01.038Z,1003.15
2022-09-17T02:26:01.084Z,1003.16
2022-09-17T02:27:01.080Z,1003.2
2022-09-17T02:28:03.314Z,1003.16
2022-09-17T02:29:00.676Z,1003.19
2022-09-17T02:30:00.384Z,1003.2
2022-09-17T02:31:00.135Z,1003.18
2022-09-17T02:31:59.739Z,1003.19
2022-09-17T02:33:02.515Z,1003.15
2022-09-17T02:34:01.141Z,1003.14
2022-09-17T02:35:01.853Z,1003.2
2022-09-17T02:36:01.439Z,1003.14
2022-09-17T02:37:01.048Z,1003.12
2022-09-17T02:38:01.158Z,1003.13
2022-09-17T02:39:01.073Z,1003.13
2022-09-17T02:40:01.146Z,1003.15
2022-09-17T02:41:01.777Z,1003.12
2022-09-17T02:42:01.373Z,1003.14
2022-09-17T02:43:02.089Z,1003.13
2022-09-17T02:44:02.007Z,1003.2
2022-09-17T02:45:01.424Z,1003.16
2022-09-17T02:46:01.482Z,1003.2
2022-09-17T02:47:01.233Z,1003.17
2022-09-17T02:48:01.532Z,1003.19
2022-09-17T02:49:01.134Z,1003.21
2022-09-17T02:50:01.154Z,1003.22
2022-09-17T02:51:01.145Z,1003.19
2022-09-17T02:52:01.165Z,1003.14
2022-09-17T02:53:01.042Z,1003.19
2022-09-17T02:54:00.967Z,1003.11
2022-09-17T02:55:01.071Z,1003.15
2022-09-17T02:56:01.060Z,1003.12
2022-09-17T02:57:01.047Z,1003.08
2022-09-17T02:58:01.039Z,1003.09
2022-09-17T02:59:01.366Z,1003.11
2022-09-17T03:00:01.132Z,1003.15
2022-09-17T03:01:03.910Z,1003.08
2022-09-17T03:02:01.227Z,1003.12
2022-09-17T03:03:01.781Z,1003.06
2022-09-17T03:04:02.838Z,1003.07
2022-09-17T03:05:01.425Z,1003.09
2022-09-17T03:06:01.955Z,1003.07
2022-09-17T03:07:02.568Z,1003.05
2022-09-17T03:08:01.054Z,1003.09
2022-09-17T03:09:01.065Z,1003.1
2022-09-17T03:10:01.096Z,1003.06
2022-09-17T03:11:01.112Z,1003.1
2022-09-17T03:12:01.459Z,1003.06
2022-09-17T03:13:01.069Z,1003.12
2022-09-17T03:14:01.091Z,1003.06
2022-09-17T03:15:01.089Z,1003.04
2022-09-17T03:16:01.139Z,1003.04
2022-09-17T03:17:01.131Z,1003.05
2022-09-17T03:18:01.119Z,1003.06
2022-09-17T03:19:01.311Z,1003.08
2022-09-17T03:20:01.796Z,1003.03
2022-09-17T03:21:02.594Z,1003.06
2022-09-17T03:22:01.304Z,1003.04
2022-09-17T03:23:02.892Z,1003.12
2022-09-17T03:24:01.055Z,1003.08
2022-09-17T03:25:04.365Z,1003.12
2022-09-17T03:26:01.727Z,1003.18
2022-09-17T03:27:02.015Z,1003.13
2022-09-17T03:28:04.654Z,1003.21
2022-09-17T03:29:01.076Z,1003.16
2022-09-17T03:30:01.035Z,1003.19
2022-09-17T03:31:01.130Z,1003.15
2022-09-17T03:32:01.129Z,1003.17
2022-09-17T03:33:06.256Z,1003.26
2022-09-17T03:34:01.515Z,1003.21
2022-09-17T03:35:02.778Z,1003.25
2022-09-17T03:36:01.546Z,1003.28
2022-09-17T03:37:01.050Z,1003.29
2022-09-17T03:38:09.823Z,1003.29
2022-09-17T03:39:01.041Z,1003.33
2022-09-17T03:40:01.467Z,1003.3
2022-09-17T03:41:01.374Z,1003.34
2022-09-17T03:42:01.440Z,1003.34
2022-09-17T03:43:12.611Z,1003.37
2022-09-17T03:44:01.082Z,1003.36
2022-09-17T03:45:01.090Z,1003.4
2022-09-17T03:46:02.247Z,1003.34
2022-09-17T03:47:01.105Z,1003.38
2022-09-17T03:48:15.838Z,1003.4
2022-09-17T03:49:01.451Z,1003.46
2022-09-17T03:50:02.133Z,1003.4
2022-09-17T03:51:02.157Z,1003.41
2022-09-17T03:52:01.258Z,1003.42
2022-09-17T03:53:01.161Z,1003.44
2022-09-17T03:54:01.163Z,1003.4
2022-09-17T03:55:01.155Z,1003.47
2022-09-17T03:56:01.062Z,1003.45
2022-09-17T03:57:01.070Z,1003.46
2022-09-17T03:58:01.079Z,1003.42
2022-09-17T03:59:01.466Z,1003.45
2022-09-17T04:00:01.082Z,1003.44
2022-09-17T04:01:01.093Z,1003.46
2022-09-17T04:02:01.196Z,1003.47
2022-09-17T04:03:01.310Z,1003.45
2022-09-17T04:04:01.215Z,1003.48
2022-09-17T04:05:00.767Z,1003.46
2022-09-17T04:06:00.520Z,1003.46
2022-09-17T04:07:00.084Z,1003.46
2022-09-17T04:07:59.699Z,1003.42
2022-09-17T04:09:01.825Z,1003.44
2022-09-17T04:10:01.953Z,1003.44
2022-09-17T04:11:03.375Z,1003.44
2022-09-17T04:12:01.063Z,1003.44
2022-09-17T04:13:01.075Z,1003.47
2022-09-17T04:14:01.046Z,1003.48
2022-09-17T04:15:01.042Z,1003.57
2022-09-17T04:16:01.563Z,1003.56
2022-09-17T04:17:01.212Z,1003.53
2022-09-17T04:18:03.949Z,1003.54
2022-09-17T04:19:02.458Z,1003.55
2022-09-17T04:20:01.139Z,1003.63
2022-09-17T04:21:02.444Z,1003.51
2022-09-17T04:22:02.559Z,1003.62
2022-09-17T04:23:01.167Z,1003.6
2022-09-17T04:24:00.816Z,1003.62
2022-09-17T04:25:00.698Z,1003.68
2022-09-17T04:26:00.452Z,1003.63
2022-09-17T04:27:00.226Z,1003.64
2022-09-17T04:27:59.843Z,1003.69
2022-09-17T04:29:01.580Z,1003.62
2022-09-17T04:30:01.179Z,1003.62
2022-09-17T04:31:01.915Z,1003.62
2022-09-17T04:32:02.344Z,1003.6
2022-09-17T04:33:02.003Z,1003.58
2022-09-17T04:34:01.390Z,1003.57
2022-09-17T04:35:01.225Z,1003.55
2022-09-17T04:36:01.678Z,1003.54
2022-09-17T04:37:01.134Z,1003.54
2022-09-17T04:38:01.143Z,1003.58
2022-09-17T04:39:01.126Z,1003.63
2022-09-17T04:40:03.680Z,1003.61
2022-09-17T04:41:01.153Z,1003.58
2022-09-17T04:42:01.786Z,1003.59
2022-09-17T04:43:01.870Z,1003.63
2022-09-17T04:44:01.460Z,1003.6
2022-09-17T04:45:01.448Z,1003.6
2022-09-17T04:46:02.142Z,1003.61
2022-09-17T04:47:02.150Z,1003.62
2022-09-17T04:48:01.087Z,1003.65
2022-09-17T04:49:01.133Z,1003.7
2022-09-17T04:50:01.098Z,1003.64
2022-09-17T04:51:01.116Z,1003.69
2022-09-17T04:52:01.471Z,1003.68
2022-09-17T04:53:01.463Z,1003.7
2022-09-17T04:54:01.036Z,1003.67
2022-09-17T04:55:01.058Z,1003.68
2022-09-17T04:56:01.208Z,1003.74
2022-09-17T04:57:01.085Z,1003.7
2022-09-17T04:58:01.861Z,1003.71
2022-09-17T04:59:00.855Z,1003.7
2022-09-17T05:00:00.629Z,1003.77
2022-09-17T05:01:01.017Z,1003.74
2022-09-17T05:02:01.216Z,1003.7
2022-09-17T05:03:01.151Z,1003.78
2022-09-17T05:04:00.886Z,1003.75
2022-09-17T05:05:01.103Z,1003.77
2022-09-17T05:06:01.059Z,1003.76
2022-09-17T05:07:01.121Z,1003.73
2022-09-17T05:08:01.158Z,1003.8
2022-09-17T05:09:01.135Z,1003.83
2022-09-17T05:10:01.351Z,1003.75
2022-09-17T05:11:01.389Z,1003.75
2022-09-17T05:12:02.073Z,1003.76
2022-09-17T05:13:01.492Z,1003.77
2022-09-17T05:14:02.776Z,1003.83
2022-09-17T05:15:01.068Z,1003.73
2022-09-17T05:16:01.221Z,1003.77
2022-09-17T05:17:01.452Z,1003.81
2022-09-17T05:18:01.077Z,1003.74
2022-09-17T05:19:05.894Z,1003.81
2022-09-17T05:20:01.255Z,1003.76
2022-09-17T05:21:01.094Z,1003.78
2022-09-17T05:22:01.116Z,1003.86
2022-09-17T05:23:01.117Z,1003.82
2022-09-17T05:24:07.573Z,1003.78
2022-09-17T05:25:01.755Z,1003.83
2022-09-17T05:26:01.335Z,1003.87
2022-09-17T05:27:04.063Z,1003.82
2022-09-17T05:28:02.579Z,1003.85
2022-09-17T05:29:11.635Z,1003.83
2022-09-17T05:30:03.153Z,1003.8
2022-09-17T05:31:01.850Z,1003.84
2022-09-17T05:32:01.079Z,1003.86
2022-09-17T05:33:01.085Z,1003.81
2022-09-17T05:34:14.256Z,1003.84
2022-09-17T05:35:05.304Z,1003.85
2022-09-17T05:36:01.902Z,1003.87
2022-09-17T05:37:02.856Z,1003.82
2022-09-17T05:38:02.249Z,1003.81
2022-09-17T05:39:18.712Z,1003.83
2022-09-17T05:40:02.568Z,1003.84
2022-09-17T05:41:01.430Z,1003.81
2022-09-17T05:42:01.149Z,1003.83
2022-09-17T05:43:01.149Z,1003.83
2022-09-17T05:44:00.913Z,1003.84
2022-09-17T05:45:01.026Z,1003.84
2022-09-17T05:46:01.266Z,1003.78
2022-09-17T05:47:02.510Z,1003.84
2022-09-17T05:48:02.263Z,1003.83
2022-09-17T05:49:02.290Z,1003.9
2022-09-17T05:50:02.017Z,1003.84
2022-09-17T05:51:01.166Z,1003.85
2022-09-17T05:52:01.103Z,1003.85
2022-09-17T05:53:01.108Z,1003.89
2022-09-17T05:54:01.161Z,1003.91
2022-09-17T05:55:01.117Z,1003.94
2022-09-17T05:56:01.123Z,1003.94
2022-09-17T05:57:01.130Z,1003.96
2022-09-17T05:58:01.135Z,1003.95
2022-09-17T05:59:01.263Z,1004
2022-09-17T06:00:00.749Z,1003.99
2022-09-17T06:01:01.075Z,1004.03
2022-09-17T06:02:01.158Z,1004.03
2022-09-17T06:03:01.874Z,1004.03
2022-09-17T06:04:01.080Z,1004.01
2022-09-17T06:05:00.689Z,1004
2022-09-17T06:06:00.262Z,1004.04
2022-09-17T06:06:59.857Z,1004.03
2022-09-17T06:08:02.526Z,1004.08
2022-09-17T06:09:01.808Z,1004.02
2022-09-17T06:10:01.303Z,1004.03
2022-09-17T06:11:02.685Z,1004.06
2022-09-17T06:12:01.704Z,1004.01
2022-09-17T06:13:02.401Z,1003.97
2022-09-17T06:14:01.041Z,1003.98
2022-09-17T06:15:01.800Z,1004.01
2022-09-17T06:16:01.126Z,1004.04
2022-09-17T06:17:01.772Z,1004.03
2022-09-17T06:18:01.076Z,1004.03
2022-09-17T06:19:01.610Z,1004.02
2022-09-17T06:20:01.286Z,1004.06
2022-09-17T06:21:01.300Z,1004.07
2022-09-17T06:22:01.331Z,1004.09
2022-09-17T06:23:02.453Z,1004.08
2022-09-17T06:24:02.003Z,1004.1
2022-09-17T06:25:01.736Z,1004.08
2022-09-17T06:26:01.389Z,1004.09
2022-09-17T06:27:02.763Z,1004.1
2022-09-17T06:28:02.058Z,1004.08
2022-09-17T06:29:01.418Z,1004.12
2022-09-17T06:30:01.437Z,1004.1
2022-09-17T06:31:01.500Z,1004.11
2022-09-17T06:32:01.056Z,1004.16
2022-09-17T06:33:01.068Z,1004.14
2022-09-17T06:34:01.824Z,1004.16
2022-09-17T06:35:01.085Z,1004.07
2022-09-17T06:36:01.119Z,1004.08
2022-09-17T06:37:01.079Z,1004.1
2022-09-17T06:38:01.165Z,1004.11
2022-09-17T06:39:01.526Z,1004.06
2022-09-17T06:40:01.188Z,1004.08
2022-09-17T06:41:01.845Z,1004.04
2022-09-17T06:42:01.203Z,1004.08
2022-09-17T06:43:01.269Z,1004.05
2022-09-17T06:44:01.226Z,1004.1
2022-09-17T06:45:06.982Z,1004.07
2022-09-17T06:46:01.147Z,1004.05
2022-09-17T06:47:01.306Z,1004.08
2022-09-17T06:48:01.193Z,1004.08
2022-09-17T06:49:02.286Z,1004.06
2022-09-17T06:50:04.481Z,1004.06
2022-09-17T06:51:01.984Z,1004.12
2022-09-17T06:52:01.892Z,1004.06
2022-09-17T06:53:01.487Z,1004.05
2022-09-17T06:54:01.093Z,1004.03
2022-09-17T06:55:08.307Z,1004.07
2022-09-17T06:56:06.082Z,1004.07
2022-09-17T06:57:01.831Z,1004.06
2022-09-17T06:58:01.121Z,1004.1
2022-09-17T06:59:01.073Z,1004.09
2022-09-17T07:00:11.111Z,1004.1
2022-09-17T07:01:02.090Z,1004.13
2022-09-17T07:02:02.444Z,1004.15
2022-09-17T07:03:01.992Z,1004.17
2022-09-17T07:04:01.120Z,1004.12
2022-09-17T07:05:14.165Z,1004.16
2022-09-17T07:06:02.629Z,1004.11
2022-09-17T07:07:01.276Z,1004.1
2022-09-17T07:08:01.101Z,1004.09
2022-09-17T07:09:01.422Z,1004.03
2022-09-17T07:10:17.982Z,1004.06
2022-09-17T07:11:01.162Z,1004.07
2022-09-17T07:12:01.787Z,1004.13
2022-09-17T07:13:01.114Z,1004.08
2022-09-17T07:14:01.281Z,1004.06
2022-09-17T07:15:01.127Z,1004.06
2022-09-17T07:16:01.600Z,1004.05
2022-09-17T07:17:02.056Z,1004.09
2022-09-17T07:18:01.148Z,1004.09
2022-09-17T07:19:01.074Z,1004.06
2022-09-17T07:20:01.765Z,1004.09
2022-09-17T07:21:01.066Z,1004.08
2022-09-17T07:22:01.090Z,1004.09
2022-09-17T07:23:01.087Z,1004.09
2022-09-17T07:24:01.258Z,1004.09
2022-09-17T07:25:01.127Z,1004.02
2022-09-17T07:26:01.119Z,1004.1
2022-09-17T07:27:01.100Z,1004.04
2022-09-17T07:28:03.943Z,1004.01
2022-09-17T07:29:01.194Z,1004.02
2022-09-17T07:30:01.926Z,1004.03
2022-09-17T07:31:01.192Z,1004.03
2022-09-17T07:32:02.570Z,1004.02
2022-09-17T07:33:01.359Z,1004.06
2022-09-17T07:34:01.346Z,1004.06
2022-09-17T07:35:02.584Z,1004.03
2022-09-17T07:36:01.980Z,1004.03
2022-09-17T07:37:01.086Z,1004.07
2022-09-17T07:38:01.112Z,1004.1
2022-09-17T07:39:01.287Z,1004.11
2022-09-17T07:40:01.136Z,1004.14
2022-09-17T07:41:01.504Z,1004.13
2022-09-17T07:42:02.118Z,1004.13
2022-09-17T07:43:01.213Z,1004.19
2022-09-17T07:44:01.179Z,1004.22
2022-09-17T07:45:04.974Z,1004.21
2022-09-17T07:46:00.532Z,1004.19
2022-09-17T07:47:00.254Z,1004.2
2022-09-17T07:47:59.888Z,1004.21
2022-09-17T07:48:59.438Z,1004.29
2022-09-17T07:50:01.049Z,1004.23
2022-09-17T07:51:01.456Z,1004.25
2022-09-17T07:52:01.062Z,1004.26
2022-09-17T07:53:01.095Z,1004.25
2022-09-17T07:54:01.067Z,1004.25
2022-09-17T07:55:07.854Z,1004.29
2022-09-17T07:56:01.110Z,1004.26
2022-09-17T07:57:01.092Z,1004.28
2022-09-17T07:58:01.116Z,1004.27
2022-09-17T07:59:01.146Z,1004.22
2022-09-17T08:00:01.118Z,1004.24
2022-09-17T08:01:01.131Z,1004.24
2022-09-17T08:02:01.619Z,1004.2
2022-09-17T08:03:01.354Z,1004.22
2022-09-17T08:04:02.194Z,1004.18
2022-09-17T08:05:05.229Z,1004.18
2022-09-17T08:06:00.955Z,1004.23
2022-09-17T08:07:01.407Z,1004.23
2022-09-17T08:08:01.041Z,1004.26
2022-09-17T08:09:01.104Z,1004.25
2022-09-17T08:10:01.079Z,1004.2
2022-09-17T08:11:01.478Z,1004.23
2022-09-17T08:12:01.121Z,1004.23
2022-09-17T08:13:01.568Z,1004.3
2022-09-17T08:14:01.835Z,1004.27
2022-09-17T08:15:01.197Z,1004.32
2022-09-17T08:16:01.375Z,1004.34
2022-09-17T08:17:01.042Z,1004.37
2022-09-17T08:18:01.141Z,1004.41
2022-09-17T08:19:01.183Z,1004.41
2022-09-17T08:20:01.146Z,1004.4
2022-09-17T08:21:01.935Z,1004.4
2022-09-17T08:22:01.149Z,1004.38
2022-09-17T08:23:01.093Z,1004.42
2022-09-17T08:24:01.378Z,1004.42
2022-09-17T08:25:00.855Z,1004.38
2022-09-17T08:26:00.473Z,1004.41
2022-09-17T08:27:00.052Z,1004.38
2022-09-17T08:27:59.638Z,1004.37
2022-09-17T08:29:01.858Z,1004.42
2022-09-17T08:30:02.029Z,1004.42
2022-09-17T08:31:02.168Z,1004.43
2022-09-17T08:32:01.115Z,1004.44
2022-09-17T08:33:01.118Z,1004.41
2022-09-17T08:34:01.131Z,1004.38
2022-09-17T08:35:01.138Z,1004.41
2022-09-17T08:36:04.094Z,1004.39
2022-09-17T08:37:01.346Z,1004.44
2022-09-17T08:38:01.347Z,1004.36
2022-09-17T08:39:01.357Z,1004.46
2022-09-17T08:40:02.521Z,1004.42
2022-09-17T08:41:07.634Z,1004.37
2022-09-17T08:42:01.417Z,1004.41
2022-09-17T08:43:01.123Z,1004.45
2022-09-17T08:44:01.224Z,1004.43
2022-09-17T08:45:01.212Z,1004.43
2022-09-17T08:46:09.908Z,1004.41
2022-09-17T08:47:01.073Z,1004.4
2022-09-17T08:48:00.539Z,1004.39
2022-09-17T08:49:00.436Z,1004.41
2022-09-17T08:50:00.453Z,1004.45
2022-09-17T08:51:10.741Z,1004.5
2022-09-17T08:52:01.195Z,1004.51
2022-09-17T08:53:01.147Z,1004.53
2022-09-17T08:54:01.920Z,1004.52
2022-09-17T08:55:01.854Z,1004.53
2022-09-17T08:56:15.236Z,1004.54
2022-09-17T08:57:01.076Z,1004.49
2022-09-17T08:58:01.470Z,1004.56
2022-09-17T08:59:01.469Z,1004.54
2022-09-17T09:00:02.125Z,1004.57
2022-09-17T09:01:16.839Z,1004.56
2022-09-17T09:02:02.321Z,1004.53
2022-09-17T09:03:02.597Z,1004.56
2022-09-17T09:04:02.035Z,1004.54
2022-09-17T09:05:02.589Z,1004.6
2022-09-17T09:06:01.054Z,1004.54
2022-09-17T09:07:01.533Z,1004.57
2022-09-17T09:08:01.041Z,1004.55
2022-09-17T09:09:01.055Z,1004.57
2022-09-17T09:10:01.067Z,1004.56
2022-09-17T09:11:01.074Z,1004.59
2022-09-17T09:12:01.074Z,1004.6
2022-09-17T09:13:01.359Z,1004.68
2022-09-17T09:14:01.366Z,1004.67
2022-09-17T09:15:01.371Z,1004.67
2022-09-17T09:16:01.435Z,1004.7
2022-09-17T09:17:01.049Z,1004.67
2022-09-17T09:18:01.273Z,1004.65
2022-09-17T09:19:01.315Z,1004.65
2022-09-17T09:20:02.558Z,1004.7
2022-09-17T09:21:02.566Z,1004.67
2022-09-17T09:22:01.134Z,1004.72
2022-09-17T09:23:01.136Z,1004.72
2022-09-17T09:24:01.285Z,1004.75
2022-09-17T09:25:00.852Z,1004.75
2022-09-17T09:26:01.322Z,1004.74
2022-09-17T09:27:02.002Z,1004.71
2022-09-17T09:28:02.158Z,1004.75
2022-09-17T09:29:02.410Z,1004.76
2022-09-17T09:30:01.080Z,1004.81
2022-09-17T09:31:01.437Z,1004.85
2022-09-17T09:32:01.112Z,1004.85
2022-09-17T09:33:01.270Z,1004.84
2022-09-17T09:34:02.257Z,1004.84
2022-09-17T09:35:01.230Z,1004.85
2022-09-17T09:36:01.154Z,1004.83
2022-09-17T09:37:01.132Z,1004.92
2022-09-17T09:38:01.143Z,1004.9
2022-09-17T09:39:01.733Z,1004.84
2022-09-17T09:40:01.159Z,1004.86
2022-09-17T09:41:01.059Z,1004.83
2022-09-17T09:42:01.068Z,1004.85
2022-09-17T09:43:01.066Z,1004.82
2022-09-17T09:44:05.305Z,1004.83
2022-09-17T09:45:04.960Z,1004.83
2022-09-17T09:46:01.787Z,1004.84
2022-09-17T09:47:01.579Z,1004.82
2022-09-17T09:48:01.293Z,1004.78
2022-09-17T09:49:02.026Z,1004.79
2022-09-17T09:50:01.131Z,1004.76
2022-09-17T09:51:08.246Z,1004.79
2022-09-17T09:52:01.128Z,1004.73
2022-09-17T09:53:01.141Z,1004.76
2022-09-17T09:54:01.772Z,1004.73
2022-09-17T09:55:01.865Z,1004.79
2022-09-17T09:56:01.737Z,1004.81
2022-09-17T09:57:01.439Z,1004.77
2022-09-17T09:58:01.768Z,1004.8
2022-09-17T09:59:01.380Z,1004.84
2022-09-17T10:00:02.289Z,1004.84
2022-09-17T10:01:01.920Z,1004.86
2022-09-17T10:02:01.618Z,1004.84
2022-09-17T10:03:01.308Z,1004.89
2022-09-17T10:04:02.029Z,1004.91
2022-09-17T10:05:01.006Z,1004.92
2022-09-17T10:06:01.132Z,1004.91
2022-09-17T10:07:01.138Z,1004.94
2022-09-17T10:08:01.144Z,1004.92
2022-09-17T10:09:01.081Z,1004.94
2022-09-17T10:10:01.044Z,1004.98
2022-09-17T10:11:01.140Z,1004.93
2022-09-17T10:12:01.757Z,1004.98
2022-09-17T10:13:00.871Z,1005
2022-09-17T10:14:00.681Z,1005
2022-09-17T10:15:00.369Z,1005.01
2022-09-17T10:15:59.954Z,1005.03
2022-09-17T10:16:59.519Z,1005.04
2022-09-17T10:18:01.104Z,1005.02
2022-09-17T10:19:01.701Z,1005.06
2022-09-17T10:20:01.112Z,1005.1
2022-09-17T10:21:01.241Z,1005.05
2022-09-17T10:22:01.770Z,1005.12
2022-09-17T10:23:01.128Z,1005.08
2022-09-17T10:24:01.146Z,1005.06
2022-09-17T10:25:00.871Z,1005.02
2022-09-17T10:26:01.152Z,1005.07
2022-09-17T10:27:03.439Z,1005.07
2022-09-17T10:28:01.765Z,1005.04
2022-09-17T10:29:02.081Z,1005.08
2022-09-17T10:30:01.120Z,1005.01
2022-09-17T10:31:05.174Z,1005.01
2022-09-17T10:32:05.308Z,1004.99
2022-09-17T10:33:01.490Z,1005.02
2022-09-17T10:34:02.473Z,1004.95
2022-09-17T10:35:01.117Z,1004.95
2022-09-17T10:36:01.165Z,1004.91
2022-09-17T10:37:09.185Z,1004.89
2022-09-17T10:38:01.129Z,1004.89
2022-09-17T10:39:01.140Z,1004.89
2022-09-17T10:40:02.694Z,1004.85
2022-09-17T10:41:01.044Z,1004.88
2022-09-17T10:42:11.107Z,1004.9
2022-09-17T10:43:01.465Z,1004.91
2022-09-17T10:44:01.138Z,1004.93
2022-09-17T10:45:01.034Z,1004.89
2022-09-17T10:46:01.076Z,1004.92
2022-09-17T10:47:14.181Z,1004.99
2022-09-17T10:48:01.088Z,1004.92
2022-09-17T10:49:01.090Z,1005.01
2022-09-17T10:50:01.421Z,1004.99
2022-09-17T10:51:01.374Z,1004.92
2022-09-17T10:52:16.889Z,1005
2022-09-17T10:53:02.747Z,1005
2022-09-17T10:54:01.137Z,1005.08
2022-09-17T10:55:01.221Z,1005.09
2022-09-17T10:56:01.159Z,1005.17
2022-09-17T10:57:01.104Z,1005.13
2022-09-17T10:58:00.741Z,1005.15
2022-09-17T10:59:00.505Z,1005.12
2022-09-17T11:00:00.170Z,1005.11
2022-09-17T11:00:59.930Z,1005.07
2022-09-17T11:01:59.757Z,1005.07
2022-09-17T11:03:02.698Z,1005.13
2022-09-17T11:04:02.527Z,1005.13
2022-09-17T11:05:01.399Z,1005.08
2022-09-17T11:06:02.225Z,1005.13
2022-09-17T11:07:01.103Z,1005.11
2022-09-17T11:08:01.045Z,1005.16
2022-09-17T11:09:01.122Z,1005.19
2022-09-17T11:10:01.124Z,1005.2
2022-09-17T11:11:01.158Z,1005.2
2022-09-17T11:12:01.232Z,1005.22
2022-09-17T11:13:01.043Z,1005.17
2022-09-17T11:14:01.133Z,1005.17
2022-09-17T11:15:01.059Z,1005.16
2022-09-17T11:16:01.127Z,1005.12
2022-09-17T11:17:01.238Z,1005.14
2022-09-17T11:18:01.082Z,1005.08
2022-09-17T11:19:01.712Z,1005.1
2022-09-17T11:20:01.417Z,1005.1
2022-09-17T11:21:02.050Z,1005.05
2022-09-17T11:22:02.125Z,1005.07
2022-09-17T11:23:01.126Z,1005.03
2022-09-17T11:24:01.818Z,1005.03
2022-09-17T11:25:00.810Z,1005.05
2022-09-17T11:26:01.177Z,1005.01
2022-09-17T11:27:02.563Z,1005.04
2022-09-17T11:28:02.055Z,1005.02
2022-09-17T11:29:02.079Z,1005.07
2022-09-17T11:30:02.324Z,1005.03
2022-09-17T11:31:08.016Z,1005.02
2022-09-17T11:32:02.436Z,1005.07
2022-09-17T11:33:01.084Z,1005.05
2022-09-17T11:34:01.091Z,1005.02
2022-09-17T11:35:01.824Z,1004.97
2022-09-17T11:36:01.202Z,1004.94
2022-09-17T11:37:01.031Z,1004.94
2022-09-17T11:38:01.490Z,1005.01
2022-09-17T11:39:01.572Z,1004.92
2022-09-17T11:40:01.233Z,1004.92
2022-09-17T11:41:01.146Z,1004.83
2022-09-17T11:42:01.154Z,1004.83
2022-09-17T11:43:01.153Z,1004.8
2022-09-17T11:44:00.860Z,1004.76
2022-09-17T11:45:00.637Z,1004.76
2022-09-17T11:46:00.368Z,1004.74
2022-09-17T11:47:00.244Z,1004.68
2022-09-17T11:47:59.873Z,1004.71
2022-09-17T11:49:02.433Z,1004.68
2022-09-17T11:50:01.284Z,1004.68
2022-09-17T11:51:00.987Z,1004.71
2022-09-17T11:52:01.092Z,1004.64
2022-09-17T11:53:01.113Z,1004.67
2022-09-17T11:54:01.707Z,1004.68
2022-09-17T11:55:01.117Z,1004.62
2022-09-17T11:56:01.489Z,1004.64
2022-09-17T11:57:01.559Z,1004.7
2022-09-17T11:58:01.135Z,1004.68
2022-09-17T11:59:01.309Z,1004.73
2022-09-17T12:00:01.891Z,1004.67
2022-09-17T12:01:01.154Z,1004.71
2022-09-17T12:02:01.236Z,1004.69
2022-09-17T12:03:02.201Z,1004.71
2022-09-17T12:04:01.864Z,1004.7
2022-09-17T12:05:01.148Z,1004.7
2022-09-17T12:06:01.108Z,1004.68
2022-09-17T12:07:01.097Z,1004.65
2022-09-17T12:08:01.107Z,1004.7